SANT/TUC METAR and TAF weather

Enter ICAO airport designator
Station Type Date Time Source
SANT METAR 2020/01/20 10:00 UTC NOAA

SANT 201000Z 01007KT CAVOK 27/24 Q1007


Station Type Date Time Source
SANT Decoded METAR 2020/01/20 10:00 UTC NOAA

Tucuman Aerodrome, Argentina (SANT) 26-51S 065-06W 450M
Jan 20, 2020 - 05:00 AM EST / 2020.01.20 1000 UTC
Wind: from the N (010 degrees) at 8 MPH (7 KT):0
Visibility: greater than 7 mile(s):0
Temperature: 80 F (27 C)
Dew Point: 75 F (24 C)
Relative Humidity: 83%
Pressure (altimeter): 29.74 in. Hg (1007 hPa)
ob: SANT 201000Z 01007KT CAVOK 27/24 Q1007
cycle: 10

Station Type Date Time Source
SANT TAF 2020/01/20 06:18 UTC NOAA

TAF TAF SANT 200500Z 2006/2106 23010KT 6000 TSRA BKN025 FEW040CB TX37/2019Z TN24/2010Z
BECMG 2009/2011 29003KT 9999 BKN25

Example: see airport list